createdAt,value
2018-08-16T00:00:31.250Z,6.83
2018-08-16T00:02:59.638Z,6.50
2018-08-16T00:05:28.014Z,7.07
2018-08-16T00:07:56.711Z,7.33
2018-08-16T00:10:25.098Z,6.80
2018-08-16T00:12:53.514Z,6.63
2018-08-16T00:15:22.851Z,7.00
2018-08-16T00:17:51.274Z,6.43
2018-08-16T00:20:19.639Z,7.23
2018-08-16T00:22:48.323Z,7.43
2018-08-16T00:25:17.294Z,6.80
2018-08-16T00:27:45.715Z,6.87
2018-08-16T00:30:16.226Z,6.53
2018-08-16T00:32:45.002Z,7.83
2018-08-16T00:35:13.494Z,6.83
2018-08-16T00:37:41.930Z,6.30
2018-08-16T00:40:12.570Z,6.50
2018-08-16T00:42:40.962Z,6.90
2018-08-16T00:45:10.103Z,7.03
2018-08-16T00:47:38.491Z,6.63
2018-08-16T00:50:08.584Z,6.60
2018-08-16T00:52:36.999Z,7.00
2018-08-16T00:55:06.379Z,6.13
2018-08-16T00:57:34.943Z,6.70
2018-08-16T01:00:03.330Z,6.50
2018-08-16T01:02:31.719Z,6.33
2018-08-16T01:05:00.090Z,5.93
2018-08-16T01:07:28.485Z,5.97
2018-08-16T01:09:56.859Z,6.43
2018-08-16T01:12:25.267Z,6.93
2018-08-16T01:14:53.671Z,6.00
2018-08-16T01:17:22.072Z,6.13
2018-08-16T01:19:50.465Z,6.77
2018-08-16T01:22:18.866Z,5.60
2018-08-16T01:24:47.230Z,6.27
2018-08-16T01:27:15.803Z,6.03
2018-08-16T01:29:44.178Z,6.27
2018-08-16T01:32:12.583Z,6.10
2018-08-16T01:34:40.954Z,6.57
2018-08-16T01:37:09.367Z,6.27
2018-08-16T01:39:37.741Z,7.40
2018-08-16T01:42:06.143Z,6.53
2018-08-16T01:44:34.505Z,6.43
2018-08-16T01:47:02.895Z,6.47
2018-08-16T01:49:35.760Z,6.03
2018-08-16T01:52:04.158Z,6.10
2018-08-16T01:54:32.782Z,6.20
2018-08-16T01:57:01.849Z,7.07
2018-08-16T01:59:30.238Z,8.17
2018-08-16T02:01:58.605Z,7.53
2018-08-16T02:04:27.007Z,8.90
2018-08-16T02:06:55.425Z,7.43
2018-08-16T02:09:24.297Z,6.90
2018-08-16T02:11:53.055Z,7.80
2018-08-16T02:14:21.866Z,8.00
2018-08-16T02:16:51.038Z,7.90
2018-08-16T02:19:19.434Z,7.37
2018-08-16T02:21:47.798Z,7.73
2018-08-16T02:24:16.203Z,7.53
2018-08-16T02:26:44.574Z,6.00
2018-08-16T02:29:12.973Z,6.17
2018-08-16T02:31:41.346Z,7.33
2018-08-16T02:34:09.742Z,7.03
2018-08-16T02:36:38.106Z,6.73
2018-08-16T02:39:08.731Z,6.60
2018-08-16T02:41:37.391Z,6.97
2018-08-16T02:44:06.098Z,8.10
2018-08-16T02:46:34.474Z,7.30
2018-08-16T02:49:02.862Z,7.50
2018-08-16T02:51:31.226Z,7.23
2018-08-16T02:53:59.613Z,8.57
2018-08-16T02:56:27.995Z,7.07
2018-08-16T02:58:56.382Z,7.10
2018-08-16T03:01:24.745Z,8.80
2018-08-16T03:03:53.143Z,7.80
2018-08-16T03:06:21.526Z,7.60
2018-08-16T03:08:49.918Z,8.20
2018-08-16T03:11:18.299Z,8.07
2018-08-16T03:13:46.685Z,7.47
2018-08-16T03:16:15.077Z,8.57
2018-08-16T03:18:43.473Z,6.93
2018-08-16T03:21:11.839Z,7.90
2018-08-16T03:23:40.235Z,7.47
2018-08-16T03:26:08.602Z,8.80
2018-08-16T03:28:36.993Z,8.33
2018-08-16T03:31:05.463Z,7.77
2018-08-16T03:33:33.854Z,7.80
2018-08-16T03:36:02.218Z,7.70
2018-08-16T03:38:30.611Z,7.80
2018-08-16T03:40:58.970Z,7.70
2018-08-16T03:43:27.371Z,8.00
2018-08-16T03:45:55.733Z,7.20
2018-08-16T03:48:24.126Z,7.30
2018-08-16T03:50:52.500Z,8.13
2018-08-16T03:53:20.905Z,6.87
2018-08-16T03:55:49.281Z,7.07
2018-08-16T03:58:17.649Z,7.70
2018-08-16T04:00:46.121Z,7.00
2018-08-16T04:03:14.491Z,6.47
2018-08-16T04:05:42.881Z,6.60
2018-08-16T04:08:11.245Z,8.03
2018-08-16T04:10:40.105Z,7.30
2018-08-16T04:13:08.473Z,7.43
2018-08-16T04:15:37.054Z,7.03
2018-08-16T04:18:11.990Z,7.43
2018-08-16T04:20:40.423Z,6.90
2018-08-16T04:23:08.805Z,6.87
2018-08-16T04:25:37.186Z,7.93
2018-08-16T04:28:05.675Z,7.93
2018-08-16T04:30:34.187Z,7.20
2018-08-16T04:33:02.550Z,6.43
2018-08-16T04:35:30.977Z,8.20
2018-08-16T04:37:59.333Z,7.47
2018-08-16T04:40:27.725Z,7.87
2018-08-16T04:42:56.093Z,6.07
2018-08-16T04:45:24.511Z,7.40
2018-08-16T04:47:52.877Z,7.00
2018-08-16T04:50:21.286Z,7.00
2018-08-16T04:52:49.662Z,8.20
2018-08-16T04:55:18.073Z,7.83
2018-08-16T04:57:46.442Z,7.70
2018-08-16T05:00:14.858Z,8.63
2018-08-16T05:02:43.253Z,7.30
2018-08-16T05:05:11.646Z,7.67
2018-08-16T05:07:40.136Z,7.67
2018-08-16T05:10:10.093Z,8.07
2018-08-16T05:12:38.655Z,6.93
2018-08-16T05:15:09.107Z,7.33
2018-08-16T05:17:37.494Z,7.67
2018-08-16T05:20:07.719Z,9.10
2018-08-16T05:22:36.099Z,8.63
2018-08-16T05:25:05.285Z,6.87
2018-08-16T05:27:33.751Z,6.90
2018-08-16T05:30:02.159Z,8.20
2018-08-16T05:32:30.539Z,6.40
2018-08-16T05:34:59.106Z,8.10
2018-08-16T05:37:27.488Z,7.00
2018-08-16T05:39:55.878Z,7.10
2018-08-16T05:42:24.426Z,7.33
2018-08-16T05:44:52.825Z,7.60
2018-08-16T05:47:21.185Z,7.07
2018-08-16T05:49:49.569Z,7.53
2018-08-16T05:52:18.041Z,8.30
2018-08-16T05:54:46.438Z,7.50
2018-08-16T05:57:14.802Z,8.20
2018-08-16T05:59:43.185Z,8.33
2018-08-16T06:02:11.650Z,8.00
2018-08-16T06:04:40.069Z,9.80
2018-08-16T06:07:08.451Z,8.30
2018-08-16T06:09:36.827Z,9.10
2018-08-16T06:12:05.345Z,7.83
2018-08-16T06:14:33.710Z,7.80
2018-08-16T06:17:02.118Z,7.50
2018-08-16T06:19:30.485Z,8.30
2018-08-16T06:21:58.892Z,7.90
2018-08-16T06:24:27.267Z,8.23
2018-08-16T06:26:55.662Z,8.90
2018-08-16T06:29:24.036Z,8.50
2018-08-16T06:31:52.428Z,9.27
2018-08-16T06:34:20.821Z,8.93
2018-08-16T06:36:49.209Z,8.80
2018-08-16T06:39:17.582Z,8.37
2018-08-16T06:41:45.979Z,9.00
2018-08-16T06:44:14.346Z,8.70
2018-08-16T06:46:42.734Z,8.73
2018-08-16T06:49:11.114Z,9.80
2018-08-16T06:51:39.519Z,8.97
2018-08-16T06:54:08.065Z,9.37
2018-08-16T06:56:36.449Z,8.97
2018-08-16T06:59:04.862Z,9.10
2018-08-16T07:01:33.410Z,8.10
2018-08-16T07:04:01.793Z,9.07
2018-08-16T07:06:30.188Z,9.00
2018-08-16T07:08:58.567Z,8.50
2018-08-16T07:11:26.954Z,7.73
2018-08-16T07:13:55.345Z,8.97
2018-08-16T07:16:23.777Z,7.27
2018-08-16T07:18:52.302Z,8.13
2018-08-16T07:21:20.683Z,8.20
2018-08-16T07:23:49.274Z,8.20
2018-08-16T07:26:17.670Z,8.30
2018-08-16T07:28:46.157Z,7.67
2018-08-16T07:31:14.550Z,7.33
2018-08-16T07:33:42.940Z,8.13
2018-08-16T07:36:11.337Z,8.20
2018-08-16T07:38:39.913Z,6.83
2018-08-16T07:41:08.311Z,7.40
2018-08-16T07:43:36.682Z,7.47
2018-08-16T07:46:05.352Z,6.50
2018-08-16T07:48:33.648Z,7.03
2018-08-16T07:51:02.130Z,6.80
2018-08-16T07:53:30.474Z,6.47
2018-08-16T07:55:58.882Z,7.03
2018-08-16T07:58:27.407Z,7.63
2018-08-16T08:00:55.938Z,6.10
2018-08-16T08:03:24.380Z,6.57
2018-08-16T08:05:52.794Z,5.83
2018-08-16T08:08:21.175Z,6.60
2018-08-16T08:10:49.545Z,7.10
2018-08-16T08:13:17.934Z,5.93
2018-08-16T08:15:46.321Z,5.20
2018-08-16T08:18:14.701Z,6.40
2018-08-16T08:20:43.115Z,5.30
2018-08-16T08:23:11.502Z,6.00
2018-08-16T08:25:40.010Z,5.50
2018-08-16T08:28:08.678Z,5.43
2018-08-16T08:30:37.050Z,5.70
2018-08-16T08:33:05.472Z,5.10
2018-08-16T08:35:33.924Z,5.20
2018-08-16T08:38:09.881Z,5.60
2018-08-16T08:40:38.272Z,5.07
2018-08-16T08:43:07.010Z,5.20
2018-08-16T08:45:35.381Z,4.90
2018-08-16T08:48:03.774Z,5.00
2018-08-16T08:50:32.162Z,4.50
2018-08-16T08:53:11.786Z,4.57
2018-08-16T08:55:51.418Z,4.57
2018-08-16T08:58:51.946Z,4.23
2018-08-16T09:01:20.317Z,4.60
2018-08-16T09:03:48.707Z,4.80
2018-08-16T09:06:17.071Z,4.20
2018-08-16T09:08:45.457Z,4.20
2018-08-16T09:11:25.227Z,4.10
2018-08-16T09:14:06.286Z,3.67
2018-08-16T09:16:41.702Z,4.20
2018-08-16T09:19:10.818Z,4.30
2018-08-16T09:21:39.210Z,4.13
2018-08-16T09:24:07.705Z,3.83
2018-08-16T09:26:39.726Z,4.47
2018-08-16T09:30:20.732Z,3.60
2018-08-16T09:33:00.500Z,3.90
2018-08-16T09:35:29.569Z,4.47
2018-08-16T09:37:58.364Z,3.33
2018-08-16T09:40:26.747Z,3.27
2018-08-16T09:42:55.150Z,3.60
2018-08-16T09:45:34.892Z,3.67
2018-08-16T09:48:14.656Z,3.57
2018-08-16T09:50:43.111Z,3.60
2018-08-16T09:53:11.501Z,3.60
2018-08-16T09:55:39.915Z,3.43
2018-08-16T09:58:08.322Z,3.27
2018-08-16T10:00:41.938Z,2.80
2018-08-16T10:03:10.350Z,2.73
2018-08-16T10:05:38.743Z,2.77
2018-08-16T10:08:07.158Z,3.27
2018-08-16T10:10:35.534Z,2.97
2018-08-16T10:13:03.930Z,3.23
2018-08-16T10:15:32.337Z,3.20
2018-08-16T10:18:00.703Z,3.07
2018-08-16T10:20:29.096Z,3.27
2018-08-16T10:22:57.513Z,2.30
2018-08-16T10:25:25.903Z,2.70
2018-08-16T10:27:54.269Z,3.30
2018-08-16T10:30:22.683Z,3.10
2018-08-16T10:32:51.054Z,2.27
2018-08-16T10:35:19.448Z,3.80
2018-08-16T10:37:47.819Z,2.50
2018-08-16T10:40:16.220Z,2.47
2018-08-16T10:42:44.595Z,2.53
2018-08-16T10:45:13.007Z,2.17
2018-08-16T10:47:41.382Z,2.90
2018-08-16T10:50:09.789Z,2.70
2018-08-16T10:52:38.171Z,2.50
2018-08-16T10:55:06.647Z,2.30
2018-08-16T10:57:35.010Z,1.73
2018-08-16T11:00:03.428Z,2.10
2018-08-16T11:02:31.816Z,2.20
2018-08-16T11:05:00.218Z,2.20
2018-08-16T11:07:28.602Z,2.80
2018-08-16T11:09:56.999Z,1.70
2018-08-16T11:12:25.379Z,2.50
2018-08-16T11:14:53.823Z,2.23
2018-08-16T11:17:22.187Z,2.40
2018-08-16T11:19:50.581Z,1.80
2018-08-16T11:22:18.951Z,2.43
2018-08-16T11:24:47.341Z,1.97
2018-08-16T11:27:15.779Z,2.17
2018-08-16T11:29:44.171Z,2.00
2018-08-16T11:32:12.546Z,2.27
2018-08-16T11:34:40.942Z,1.93
2018-08-16T11:37:09.314Z,2.10
2018-08-16T11:39:37.709Z,1.80
2018-08-16T11:42:06.081Z,2.10
2018-08-16T11:44:34.470Z,1.70
2018-08-16T11:47:02.838Z,2.30
2018-08-16T11:49:31.230Z,1.80
2018-08-16T11:51:59.602Z,1.90
2018-08-16T11:54:27.994Z,2.13
2018-08-16T11:56:56.377Z,2.20
2018-08-16T11:59:24.782Z,1.97
2018-08-16T12:01:53.155Z,1.73
2018-08-16T12:04:21.559Z,2.00
2018-08-16T12:06:49.944Z,2.43
2018-08-16T12:09:18.319Z,1.90
2018-08-16T12:11:46.719Z,2.20
2018-08-16T12:14:15.085Z,2.60
2018-08-16T12:16:43.496Z,2.80
2018-08-16T12:19:11.858Z,2.50
2018-08-16T12:21:40.272Z,3.37
2018-08-16T12:24:08.645Z,2.37
2018-08-16T12:26:37.058Z,2.30
2018-08-16T12:29:05.478Z,2.47
2018-08-16T12:31:33.945Z,2.87
2018-08-16T12:34:02.314Z,2.57
2018-08-16T12:36:30.715Z,2.70
2018-08-16T12:38:59.311Z,3.10
2018-08-16T12:41:27.712Z,2.37
2018-08-16T12:43:56.099Z,2.10
2018-08-16T12:46:24.522Z,2.83
2018-08-16T12:48:52.918Z,2.67
2018-08-16T12:51:21.313Z,2.70
2018-08-16T12:53:49.691Z,3.30
2018-08-16T12:56:18.083Z,3.20
2018-08-16T12:58:46.449Z,2.87
2018-08-16T13:01:14.852Z,3.53
2018-08-16T13:03:43.227Z,3.03
2018-08-16T13:06:11.676Z,2.80
2018-08-16T13:08:40.055Z,2.40
2018-08-16T13:11:08.445Z,2.90
2018-08-16T13:13:36.835Z,3.53
2018-08-16T13:16:05.253Z,3.40
2018-08-16T13:18:35.275Z,2.77
2018-08-16T13:21:03.676Z,2.90
2018-08-16T13:23:32.111Z,3.10
2018-08-16T13:26:00.462Z,3.47
2018-08-16T13:28:28.835Z,3.40
2018-08-16T13:30:57.230Z,2.57
2018-08-16T13:33:25.685Z,2.67
2018-08-16T13:35:54.074Z,2.83
2018-08-16T13:38:22.447Z,2.83
2018-08-16T13:40:50.842Z,3.10
2018-08-16T13:43:19.224Z,3.10
2018-08-16T13:45:47.627Z,2.53
2018-08-16T13:48:16.007Z,2.87
2018-08-16T13:50:44.417Z,3.30
2018-08-16T13:53:12.800Z,2.90
2018-08-16T13:55:41.194Z,2.70
2018-08-16T13:58:09.564Z,3.03
2018-08-16T14:00:37.950Z,2.43
2018-08-16T14:03:06.469Z,2.73
2018-08-16T14:05:34.873Z,2.90
2018-08-16T14:08:03.265Z,2.90
2018-08-16T14:10:31.638Z,3.10
2018-08-16T14:13:00.025Z,3.17
2018-08-16T14:15:28.424Z,3.10
2018-08-16T14:17:56.818Z,3.27
2018-08-16T14:20:25.190Z,2.70
2018-08-16T14:22:53.590Z,2.80
2018-08-16T14:25:21.987Z,3.53
2018-08-16T14:27:50.369Z,2.70
2018-08-16T14:30:18.758Z,2.63
2018-08-16T14:32:47.150Z,2.60
2018-08-16T14:35:15.525Z,3.13
2018-08-16T14:37:43.914Z,2.83
2018-08-16T14:40:12.300Z,3.10
2018-08-16T14:42:40.733Z,2.90
2018-08-16T14:45:09.601Z,2.93
2018-08-16T14:47:38.320Z,2.67
2018-08-16T14:50:07.382Z,2.57
2018-08-16T14:52:35.909Z,2.00
2018-08-16T14:55:04.724Z,2.50
2018-08-16T14:57:33.125Z,2.63
2018-08-16T15:00:01.607Z,2.40
2018-08-16T15:02:29.997Z,2.73
2018-08-16T15:04:58.370Z,2.60
2018-08-16T15:07:26.762Z,2.40
2018-08-16T15:09:55.143Z,2.20
2018-08-16T15:12:23.606Z,2.63
2018-08-16T15:14:52.007Z,2.90
2018-08-16T15:17:20.422Z,2.80
2018-08-16T15:19:48.794Z,3.10
2018-08-16T15:22:17.211Z,2.30
2018-08-16T15:24:45.580Z,2.40
2018-08-16T15:27:13.983Z,2.70
2018-08-16T15:29:42.368Z,2.40
2018-08-16T15:32:10.781Z,2.53
2018-08-16T15:34:39.158Z,2.53
2018-08-16T15:37:07.545Z,2.73
2018-08-16T15:39:35.983Z,2.43
2018-08-16T15:42:04.418Z,2.50
2018-08-16T15:44:32.770Z,2.20
2018-08-16T15:47:01.220Z,2.70
2018-08-16T15:49:29.623Z,2.60
2018-08-16T15:51:58.018Z,2.70
2018-08-16T15:54:26.403Z,2.47
2018-08-16T15:56:54.803Z,2.90
2018-08-16T15:59:23.187Z,2.60
2018-08-16T16:01:51.575Z,3.07
2018-08-16T16:04:19.946Z,2.80
2018-08-16T16:06:48.323Z,3.00
2018-08-16T16:09:16.714Z,2.30
2018-08-16T16:11:45.103Z,2.33
2018-08-16T16:14:13.503Z,2.23
2018-08-16T16:16:41.908Z,2.30
2018-08-16T16:19:10.302Z,2.47
2018-08-16T16:21:38.706Z,2.40
2018-08-16T16:24:07.131Z,2.30
2018-08-16T16:26:35.528Z,9.67
2018-08-16T16:29:03.955Z,2.60
2018-08-16T16:31:32.339Z,2.90
2018-08-16T16:34:00.742Z,3.37
2018-08-16T16:36:29.154Z,2.20
2018-08-16T16:38:57.599Z,2.60
2018-08-16T16:41:26.115Z,2.80
2018-08-16T16:43:54.522Z,2.90
2018-08-16T16:46:22.903Z,2.53
2018-08-16T16:48:51.319Z,2.53
2018-08-16T16:51:19.695Z,3.13
2018-08-16T16:53:48.105Z,3.33
2018-08-16T16:56:16.478Z,2.97
2018-08-16T16:58:44.878Z,2.90
2018-08-16T17:01:13.734Z,2.80
2018-08-16T17:03:42.177Z,2.70
2018-08-16T17:06:10.590Z,2.77
2018-08-16T17:08:39.023Z,2.80
2018-08-16T17:11:07.467Z,2.60
2018-08-16T17:13:35.922Z,2.40
2018-08-16T17:16:04.662Z,2.80
2018-08-16T17:18:33.045Z,2.77
2018-08-16T17:21:01.417Z,2.40
2018-08-16T17:23:29.827Z,2.30
2018-08-16T17:25:58.226Z,2.47
2018-08-16T17:28:26.651Z,2.60
2018-08-16T17:30:55.058Z,3.00
2018-08-16T17:33:23.454Z,2.57
2018-08-16T17:35:51.834Z,3.60
2018-08-16T17:38:20.842Z,3.10
2018-08-16T17:40:49.264Z,2.90
2018-08-16T17:43:17.657Z,3.20
2018-08-16T17:45:46.040Z,2.90
2018-08-16T17:48:14.443Z,2.70
2018-08-16T17:50:42.831Z,2.67
2018-08-16T17:53:11.228Z,3.40
2018-08-16T17:55:39.607Z,3.57
2018-08-16T17:58:08.397Z,2.77
2018-08-16T18:00:36.767Z,2.60
2018-08-16T18:03:05.151Z,2.93
2018-08-16T18:05:33.541Z,2.83
2018-08-16T18:08:01.930Z,2.80
2018-08-16T18:10:30.347Z,2.40
2018-08-16T18:12:58.763Z,3.07
2018-08-16T18:15:27.186Z,2.70
2018-08-16T18:17:55.555Z,3.20
2018-08-16T18:20:23.954Z,3.03
2018-08-16T18:22:52.334Z,2.70
2018-08-16T18:25:20.730Z,3.37
2018-08-16T18:27:49.112Z,3.27
2018-08-16T18:30:17.515Z,3.30
2018-08-16T18:32:45.900Z,3.10
2018-08-16T18:35:14.310Z,3.00
2018-08-16T18:37:42.838Z,3.53
2018-08-16T18:40:11.246Z,3.30
2018-08-16T18:42:39.668Z,3.33
2018-08-16T18:45:08.028Z,3.50
2018-08-16T18:47:36.402Z,3.83
2018-08-16T18:50:04.929Z,4.17
2018-08-16T18:52:33.303Z,3.90
2018-08-16T18:55:01.701Z,3.50
2018-08-16T18:57:30.076Z,4.00
2018-08-16T18:59:58.610Z,3.87
2018-08-16T19:02:26.993Z,4.10
2018-08-16T19:04:55.423Z,4.27
2018-08-16T19:07:23.840Z,4.20
2018-08-16T19:09:52.242Z,4.37
2018-08-16T19:12:20.619Z,3.93
2018-08-16T19:14:49.005Z,4.13
2018-08-16T19:17:17.397Z,4.07
2018-08-16T19:19:45.799Z,4.10
2018-08-16T19:22:14.180Z,4.50
2018-08-16T19:24:49.315Z,3.80
2018-08-16T19:27:17.698Z,4.43
2018-08-16T19:29:46.116Z,4.80
2018-08-16T19:32:14.525Z,4.20
2018-08-16T19:34:42.930Z,3.90
2018-08-16T19:37:11.298Z,4.13
2018-08-16T19:39:39.686Z,3.10
2018-08-16T19:42:08.071Z,4.17
2018-08-16T19:44:36.467Z,4.03
2018-08-16T19:47:04.856Z,4.30
2018-08-16T19:49:33.274Z,4.50
2018-08-16T19:52:01.834Z,3.97
2018-08-16T19:54:30.233Z,3.80
2018-08-16T19:56:58.831Z,4.07
2018-08-16T19:59:27.199Z,3.93
2018-08-16T20:01:55.650Z,3.63
2018-08-16T20:04:24.112Z,3.37
2018-08-16T20:06:52.503Z,3.90
2018-08-16T20:09:20.878Z,4.30
2018-08-16T20:11:49.269Z,3.97
2018-08-16T20:14:17.642Z,4.07
2018-08-16T20:16:46.054Z,3.80
2018-08-16T20:19:14.447Z,4.10
2018-08-16T20:21:42.841Z,4.77
2018-08-16T20:24:11.295Z,4.83
2018-08-16T20:26:39.646Z,4.10
2018-08-16T20:29:08.047Z,4.50
2018-08-16T20:31:36.441Z,4.20
2018-08-16T20:34:04.821Z,5.03
2018-08-16T20:36:33.210Z,3.90
2018-08-16T20:39:01.742Z,4.70
2018-08-16T20:41:30.136Z,4.57
2018-08-16T20:43:58.515Z,4.03
2018-08-16T20:46:26.919Z,4.70
2018-08-16T20:48:55.290Z,4.33
2018-08-16T20:51:23.674Z,3.90
2018-08-16T20:53:52.047Z,3.80
2018-08-16T20:56:20.450Z,4.83
2018-08-16T20:58:48.818Z,4.50
2018-08-16T21:01:17.211Z,4.23
2018-08-16T21:03:45.587Z,4.27
2018-08-16T21:06:13.977Z,4.50
2018-08-16T21:08:42.351Z,5.00
2018-08-16T21:11:10.762Z,4.40
2018-08-16T21:13:39.164Z,5.10
2018-08-16T21:16:07.589Z,5.40
2018-08-16T21:18:36.219Z,4.57
2018-08-16T21:21:04.618Z,5.10
2018-08-16T21:23:32.989Z,5.17
2018-08-16T21:26:01.382Z,4.60
2018-08-16T21:28:29.750Z,5.30
2018-08-16T21:30:58.134Z,4.10
2018-08-16T21:33:26.511Z,5.47
2018-08-16T21:35:54.901Z,4.73
2018-08-16T21:38:23.266Z,5.17
2018-08-16T21:40:51.666Z,4.50
2018-08-16T21:43:20.034Z,5.27
2018-08-16T21:45:48.436Z,5.17
2018-08-16T21:48:16.854Z,4.70
2018-08-16T21:50:45.239Z,5.17
2018-08-16T21:53:13.603Z,4.30
2018-08-16T21:55:41.993Z,5.87
2018-08-16T21:58:10.353Z,5.17
2018-08-16T22:00:57.121Z,5.80
2018-08-16T22:03:26.803Z,4.80
2018-08-16T22:05:59.415Z,5.10
2018-08-16T22:08:44.863Z,5.47
2018-08-16T22:11:13.279Z,5.70
2018-08-16T22:13:41.831Z,5.00
2018-08-16T22:16:10.299Z,5.20
2018-08-16T22:18:39.089Z,4.60
2018-08-16T22:21:07.697Z,5.43
2018-08-16T22:23:36.057Z,6.20
2018-08-16T22:26:04.510Z,5.07
2018-08-16T22:28:33.017Z,6.33
2018-08-16T22:31:01.619Z,5.63
2018-08-16T22:33:30.720Z,6.77
2018-08-16T22:35:59.095Z,5.53
2018-08-16T22:38:27.490Z,5.63
2018-08-16T22:40:55.858Z,6.30
2018-08-16T22:43:24.250Z,5.00
2018-08-16T22:45:52.626Z,5.60
2018-08-16T22:48:21.009Z,6.33
2018-08-16T22:50:49.383Z,6.07
2018-08-16T22:53:17.778Z,6.27
2018-08-16T22:55:46.146Z,5.30
2018-08-16T22:58:14.542Z,6.57
2018-08-16T23:00:42.913Z,6.67
2018-08-16T23:03:11.301Z,6.07
2018-08-16T23:05:39.675Z,6.70
2018-08-16T23:08:08.286Z,7.10
2018-08-16T23:10:36.653Z,6.03
2018-08-16T23:13:05.067Z,6.77
2018-08-16T23:15:33.463Z,5.80
2018-08-16T23:18:01.856Z,7.10
2018-08-16T23:20:30.234Z,7.40
2018-08-16T23:22:58.630Z,6.50
2018-08-16T23:25:26.990Z,7.20
2018-08-16T23:27:55.395Z,6.17
2018-08-16T23:30:23.767Z,6.37
2018-08-16T23:32:52.150Z,6.43
2018-08-16T23:35:20.518Z,5.70
2018-08-16T23:37:48.910Z,6.10
2018-08-16T23:40:17.277Z,6.40
2018-08-16T23:42:45.661Z,6.60
2018-08-16T23:45:14.030Z,6.37
2018-08-16T23:47:43.558Z,5.53
2018-08-16T23:50:12.195Z,6.40
2018-08-16T23:52:40.594Z,6.30
2018-08-16T23:55:09.353Z,5.83
2018-08-16T23:57:37.750Z,5.47
